Time;durP1;ratioP1;P1;durP2;ratioP2;P2;SDS_P1;SDS_P2;PMS_P1;PMS_P2;Temp;Humidity;BMP_temperature;BMP_pressure;BME280_temperature;BME280_humidity;BME280_pressure;Samples;Min_cycle;Max_cycle;Signal;HPM_P1;HPM_P2
2021/09/08 00:01:17;;;;;;;18.52;9.43;;;;;;;;;;5054821;28;20029;-67
2021/09/08 00:03:43;;;;;;;12.45;9.23;;;;;;;;;;5054499;28;20028;-67
2021/09/08 00:06:09;;;;;;;14.27;9.43;;;;;;;;;;5054573;28;20029;-68
2021/09/08 00:08:35;;;;;;;17.48;9.60;;;;;;;;;;5054310;28;20346;-67
2021/09/08 00:11:01;;;;;;;18.98;10.02;;;;;;;;;;5036537;28;20056;-67
2021/09/08 00:13:29;;;;;;;13.80;8.85;;;;;;;;;;5073241;28;20032;-69
2021/09/08 00:15:55;;;;;;;16.17;9.70;;;;;;;;;;5094484;28;20479;-68
2021/09/08 00:18:21;;;;;;;14.77;10.05;;;;;;;;;;5087727;28;20036;-67
2021/09/08 00:20:47;;;;;;;14.27;9.32;;;;;;;;;;5074476;28;20020;-67
2021/09/08 00:23:13;;;;;;;15.10;9.35;;;;;;;;;;5074170;28;20040;-67
2021/09/08 00:25:39;;;;;;;14.73;9.40;;;;;;;;;;5074311;28;20376;-66
2021/09/08 00:28:05;;;;;;;16.05;9.40;;;;;;;;;;5056210;28;20387;-68
2021/09/08 00:30:31;;;;;;;14.57;9.63;;;;;;;;;;5056258;28;20032;-68
2021/09/08 00:32:58;;;;;;;15.05;9.90;;;;;;;;;;5073134;28;20024;-69
2021/09/08 00:35:24;;;;;;;16.10;8.50;;;;;;;;;;5073785;28;20024;-67
2021/09/08 00:37:50;;;;;;;12.52;9.75;;;;;;;;;;5055959;28;20024;-67
2021/09/08 00:40:16;;;;;;;12.73;9.18;;;;;;;;;;5074052;28;20035;-68
2021/09/08 00:42:43;;;;;;;12.75;9.43;;;;;;;;;;5070934;28;20094;-67
2021/09/08 00:45:09;;;;;;;14.18;9.18;;;;;;;;;;5073879;28;20029;-68
2021/09/08 00:47:35;;;;;;;15.88;10.18;;;;;;;;;;5073709;28;20025;-67
2021/09/08 00:50:01;;;;;;;28.58;10.13;;;;;;;;;;5073526;28;20029;-67
2021/09/08 00:52:27;;;;;;;19.67;11.68;;;;;;;;;;5073761;28;20031;-67
2021/09/08 00:54:53;;;;;;;17.25;10.38;;;;;;;;;;5072338;28;20020;-68
2021/09/08 00:57:20;;;;;;;16.33;9.77;;;;;;;;;;5073509;28;20036;-67
2021/09/08 00:59:46;;;;;;;22.67;10.57;;;;;;;;;;5073615;28;20495;-67
2021/09/08 01:02:12;;;;;;;21.77;9.95;;;;;;;;;;5073640;28;20064;-66
2021/09/08 01:04:38;;;;;;;27.08;11.10;;;;;;;;;;5073203;28;20016;-66
2021/09/08 01:07:05;;;;;;;21.65;9.35;;;;;;;;;;5073367;28;20400;-66
2021/09/08 01:09:32;;;;;;;19.63;9.35;;;;;;;;;;5073344;28;20059;-67
2021/09/08 01:11:58;;;;;;;19.67;10.95;;;;;;;;;;5073361;28;20024;-66
2021/09/08 01:14:24;;;;;;;16.15;10.68;;;;;;;;;;5072149;28;20059;-67
2021/09/08 01:16:50;;;;;;;19.08;10.32;;;;;;;;;;5055306;28;20097;-68
2021/09/08 01:19:16;;;;;;;16.88;9.30;;;;;;;;;;5066866;28;20021;-67
2021/09/08 01:21:42;;;;;;;19.08;10.57;;;;;;;;;;5073196;28;20036;-67
2021/09/08 01:24:09;;;;;;;16.02;10.73;;;;;;;;;;5072914;28;20070;-67
2021/09/08 01:26:35;;;;;;;21.38;9.88;;;;;;;;;;5073082;28;20020;-67
2021/09/08 01:29:01;;;;;;;17.75;10.60;;;;;;;;;;5073025;28;20025;-68
2021/09/08 01:31:27;;;;;;;19.77;10.52;;;;;;;;;;5072038;28;20480;-68
2021/09/08 01:33:53;;;;;;;12.93;9.55;;;;;;;;;;5073275;28;20082;-67
2021/09/08 01:36:20;;;;;;;17.48;10.40;;;;;;;;;;5073206;28;20033;-68
2021/09/08 01:38:46;;;;;;;16.08;10.10;;;;;;;;;;5055406;28;20017;-67
2021/09/08 01:41:12;;;;;;;19.30;10.65;;;;;;;;;;5072918;28;20096;-67
2021/09/08 01:43:38;;;;;;;14.45;10.18;;;;;;;;;;5072745;28;20033;-67
2021/09/08 01:46:04;;;;;;;17.75;9.27;;;;;;;;;;5072963;28;20037;-67
2021/09/08 01:48:30;;;;;;;19.50;10.38;;;;;;;;;;5071508;28;20037;-67
2021/09/08 01:50:56;;;;;;;12.00;10.23;;;;;;;;;;5072766;28;20122;-67
2021/09/08 01:53:23;;;;;;;14.88;10.25;;;;;;;;;;5071628;28;20016;-67
2021/09/08 01:55:49;;;;;;;14.27;9.48;;;;;;;;;;5071363;28;20025;-67
2021/09/08 01:58:15;;;;;;;13.75;10.10;;;;;;;;;;5072893;28;20020;-67
2021/09/08 02:00:41;;;;;;;15.77;9.52;;;;;;;;;;5072623;28;20029;-67
2021/09/08 02:03:07;;;;;;;23.73;10.25;;;;;;;;;;5072731;28;20116;-67
2021/09/08 02:05:33;;;;;;;17.02;9.95;;;;;;;;;;5072635;28;20051;-66
2021/09/08 02:07:59;;;;;;;20.40;10.00;;;;;;;;;;5071597;28;20032;-67
2021/09/08 02:10:25;;;;;;;14.13;10.15;;;;;;;;;;5072578;28;20035;-67
2021/09/08 02:12:51;;;;;;;17.63;10.55;;;;;;;;;;5072687;28;20021;-67
2021/09/08 02:15:17;;;;;;;14.18;10.02;;;;;;;;;;5072333;28;20024;-67
2021/09/08 02:17:43;;;;;;;13.95;10.45;;;;;;;;;;5072454;28;20037;-67
2021/09/08 02:20:09;;;;;;;16.33;10.23;;;;;;;;;;5072638;28;20078;-67
2021/09/08 02:22:35;;;;;;;19.23;9.93;;;;;;;;;;5072496;28;20464;-67
2021/09/08 02:25:01;;;;;;;16.30;9.93;;;;;;;;;;5071139;28;20067;-67
2021/09/08 02:27:27;;;;;;;19.55;9.63;;;;;;;;;;5072370;28;20115;-66
2021/09/08 02:29:54;;;;;;;16.40;10.52;;;;;;;;;;5072630;28;20023;-66
2021/09/08 02:32:20;;;;;;;17.85;10.65;;;;;;;;;;5072406;28;20056;-66
2021/09/08 02:34:46;;;;;;;33.15;9.93;;;;;;;;;;5071212;28;20025;-67
2021/09/08 02:37:12;;;;;;;14.40;10.52;;;;;;;;;;5071967;28;20049;-67
2021/09/08 02:39:38;;;;;;;20.52;11.48;;;;;;;;;;5072480;28;20058;-67
2021/09/08 02:42:05;;;;;;;15.05;10.68;;;;;;;;;;5072257;28;20536;-67
2021/09/08 02:44:31;;;;;;;16.83;11.00;;;;;;;;;;5072220;28;20020;-68
2021/09/08 02:46:57;;;;;;;14.65;10.45;;;;;;;;;;5071147;28;20032;-67
2021/09/08 02:49:23;;;;;;;16.15;10.38;;;;;;;;;;5072121;28;20028;-68
2021/09/08 02:51:49;;;;;;;14.95;10.00;;;;;;;;;;5072199;28;20025;-67
2021/09/08 02:54:15;;;;;;;13.63;9.70;;;;;;;;;;5071088;28;20021;-67
2021/09/08 02:56:41;;;;;;;13.73;9.85;;;;;;;;;;5075024;28;20082;-67
2021/09/08 02:59:07;;;;;;;14.98;9.55;;;;;;;;;;5075798;28;20064;-67
2021/09/08 03:01:33;;;;;;;14.30;10.70;;;;;;;;;;5075757;28;20029;-67
2021/09/08 03:03:59;;;;;;;14.90;9.68;;;;;;;;;;5074804;28;20032;-67
2021/09/08 03:06:25;;;;;;;17.48;10.30;;;;;;;;;;5075722;28;20024;-67
2021/09/08 03:08:51;;;;;;;13.45;9.15;;;;;;;;;;5075788;28;20021;-67
2021/09/08 03:11:17;;;;;;;13.57;9.15;;;;;;;;;;5075940;28;20029;-67
2021/09/08 03:13:43;;;;;;;13.30;9.10;;;;;;;;;;5075802;28;20341;-67
2021/09/08 03:16:09;;;;;;;19.98;10.60;;;;;;;;;;5075455;28;20362;-67
2021/09/08 03:18:35;;;;;;;15.23;10.43;;;;;;;;;;5075452;28;20032;-67
2021/09/08 03:21:01;;;;;;;12.00;9.82;;;;;;;;;;5075406;28;20052;-67
2021/09/08 03:23:27;;;;;;;15.20;9.02;;;;;;;;;;5075234;28;20051;-67
2021/09/08 03:25:53;;;;;;;17.02;9.00;;;;;;;;;;5075372;28;20522;-67
2021/09/08 03:28:18;;;;;;;18.35;9.30;;;;;;;;;;5075472;28;20050;-67
2021/09/08 03:30:44;;;;;;;13.52;8.38;;;;;;;;;;5075452;28;20446;-67
2021/09/08 03:33:10;;;;;;;22.33;9.90;;;;;;;;;;5074318;28;20086;-67
2021/09/08 03:35:36;;;;;;;15.07;8.65;;;;;;;;;;5073803;28;20110;-66
2021/09/08 03:38:02;;;;;;;13.40;9.80;;;;;;;;;;5075030;28;20464;-67
2021/09/08 03:40:33;;;;;;;20.35;10.95;;;;;;;;;;5075321;28;20025;-68
2021/09/08 03:42:59;;;;;;;17.17;10.15;;;;;;;;;;5075063;28;20073;-68
2021/09/08 03:45:25;;;;;;;16.90;10.40;;;;;;;;;;5075094;28;20024;-67
2021/09/08 03:47:51;;;;;;;17.55;9.95;;;;;;;;;;5075330;28;20074;-67
2021/09/08 03:50:17;;;;;;;15.13;10.05;;;;;;;;;;5075490;28;20035;-67
2021/09/08 03:52:43;;;;;;;14.20;10.30;;;;;;;;;;5075288;28;20021;-67
2021/09/08 03:55:09;;;;;;;16.65;9.65;;;;;;;;;;5074971;28;20091;-68
2021/09/08 03:57:35;;;;;;;19.30;10.57;;;;;;;;;;5074592;28;20037;-67
2021/09/08 04:00:01;;;;;;;17.63;9.90;;;;;;;;;;5056732;28;20030;-66
2021/09/08 04:02:27;;;;;;;16.17;9.75;;;;;;;;;;5074858;28;20029;-67
2021/09/08 04:04:54;;;;;;;13.38;9.20;;;;;;;;;;5073704;28;20103;-68
2021/09/08 04:07:20;;;;;;;14.82;9.48;;;;;;;;;;5072086;28;20021;-67
2021/09/08 04:09:46;;;;;;;13.98;9.63;;;;;;;;;;5074701;28;20031;-67
2021/09/08 04:12:12;;;;;;;12.48;9.13;;;;;;;;;;5074586;28;20082;-68
2021/09/08 04:14:38;;;;;;;15.45;9.45;;;;;;;;;;5074462;28;20099;-67
2021/09/08 04:17:04;;;;;;;20.45;9.95;;;;;;;;;;5074154;28;20048;-67
2021/09/08 04:19:30;;;;;;;19.02;9.68;;;;;;;;;;5074246;28;20020;-66
2021/09/08 04:21:56;;;;;;;14.02;8.88;;;;;;;;;;5074299;28;20472;-68
2021/09/08 04:24:22;;;;;;;26.38;9.45;;;;;;;;;;5074048;28;20044;-67
2021/09/08 04:26:47;;;;;;;37.08;8.32;;;;;;;;;;5074155;28;20056;-67
2021/09/08 04:29:14;;;;;;;37.65;8.88;;;;;;;;;;5074442;28;20024;-68
2021/09/08 04:31:40;;;;;;;35.17;10.13;;;;;;;;;;5074592;28;20074;-67
2021/09/08 04:34:07;;;;;;;22.02;9.75;;;;;;;;;;5073161;28;20024;-67
2021/09/08 04:36:34;;;;;;;21.77;9.30;;;;;;;;;;5073954;28;20099;-68
2021/09/08 04:39:00;;;;;;;23.13;10.27;;;;;;;;;;5073954;28;20025;-67
2021/09/08 04:41:26;;;;;;;16.98;9.77;;;;;;;;;;5073963;28;20376;-66
2021/09/08 04:43:52;;;;;;;32.38;11.13;;;;;;;;;;5073854;28;20017;-67
2021/09/08 04:46:18;;;;;;;39.03;10.50;;;;;;;;;;5073754;28;20024;-67
2021/09/08 04:48:44;;;;;;;20.27;10.20;;;;;;;;;;5073669;28;20082;-67
2021/09/08 04:51:10;;;;;;;15.63;10.45;;;;;;;;;;5073732;28;20034;-67
2021/09/08 04:53:36;;;;;;;35.33;9.70;;;;;;;;;;5073492;28;20033;-68
2021/09/08 04:56:02;;;;;;;23.48;11.10;;;;;;;;;;5074000;28;20036;-67
2021/09/08 04:58:28;;;;;;;24.58;11.35;;;;;;;;;;5073600;28;20448;-66
2021/09/08 05:00:54;;;;;;;19.73;12.23;;;;;;;;;;5055147;28;20032;-68
2021/09/08 05:03:20;;;;;;;20.20;12.18;;;;;;;;;;5072516;28;20104;-69
2021/09/08 05:05:47;;;;;;;20.35;12.32;;;;;;;;;;5055900;28;20027;-71
2021/09/08 05:08:13;;;;;;;18.70;12.73;;;;;;;;;;5073094;28;20032;-69
2021/09/08 05:10:39;;;;;;;20.23;12.52;;;;;;;;;;5055537;28;20062;-69
2021/09/08 05:13:05;;;;;;;19.67;12.73;;;;;;;;;;5073512;28;20090;-69
2021/09/08 05:15:31;;;;;;;28.73;12.75;;;;;;;;;;5073178;28;20027;-69
2021/09/08 05:17:58;;;;;;;18.98;12.15;;;;;;;;;;5072890;28;20037;-70
2021/09/08 05:20:24;;;;;;;17.45;10.63;;;;;;;;;;5073533;28;20021;-70
2021/09/08 05:22:50;;;;;;;16.05;7.95;;;;;;;;;;5070387;28;20099;-69
2021/09/08 05:25:16;;;;;;;17.73;9.57;;;;;;;;;;5035042;28;20112;-69
2021/09/08 05:27:42;;;;;;;15.55;9.05;;;;;;;;;;5053145;28;20040;-69
2021/09/08 05:30:08;;;;;;;14.57;7.50;;;;;;;;;;5052643;28;20021;-69
2021/09/08 05:32:34;;;;;;;19.15;8.27;;;;;;;;;;5051331;28;20021;-70
2021/09/08 05:35:00;;;;;;;16.73;9.95;;;;;;;;;;5053264;28;20025;-69
2021/09/08 05:37:26;;;;;;;16.92;9.05;;;;;;;;;;5052547;28;20037;-70
2021/09/08 05:39:52;;;;;;;18.83;10.27;;;;;;;;;;5065404;28;20024;-70
2021/09/08 05:42:18;;;;;;;17.98;10.15;;;;;;;;;;5052665;28;20024;-70
2021/09/08 05:44:44;;;;;;;18.17;11.68;;;;;;;;;;5034946;28;20032;-70
2021/09/08 05:47:10;;;;;;;10.02;5.00;;;;;;;;;;5052437;28;20029;-70
2021/09/08 05:49:36;;;;;;;13.25;8.60;;;;;;;;;;5035208;28;20469;-70
2021/09/08 05:52:03;;;;;;;14.00;9.20;;;;;;;;;;5052953;28;20033;-70
2021/09/08 05:54:29;;;;;;;22.17;11.32;;;;;;;;;;5052929;28;20465;-74
2021/09/08 05:56:54;;;;;;;21.33;10.48;;;;;;;;;;5052720;28;20041;-73
2021/09/08 05:59:21;;;;;;;17.58;9.88;;;;;;;;;;5052717;28;20040;-64
2021/09/08 06:01:47;;;;;;;13.93;7.82;;;;;;;;;;5041028;28;20028;-65
2021/09/08 06:04:12;;;;;;;17.42;10.38;;;;;;;;;;5052219;28;20033;-72
2021/09/08 06:06:38;;;;;;;20.90;10.95;;;;;;;;;;5052754;28;20056;-64
2021/09/08 06:09:04;;;;;;;20.17;11.95;;;;;;;;;;5052563;28;20356;-70
2021/09/08 06:11:30;;;;;;;18.00;11.52;;;;;;;;;;5052412;28;20079;-63
2021/09/08 06:13:56;;;;;;;14.15;10.00;;;;;;;;;;5052353;28;20406;-68
2021/09/08 06:16:22;;;;;;;18.35;7.28;;;;;;;;;;5052105;28;20460;-67
2021/09/08 06:18:48;;;;;;;14.00;6.30;;;;;;;;;;5051228;28;20017;-66
2021/09/08 06:21:14;;;;;;;27.40;8.50;;;;;;;;;;5052650;28;20032;-74
2021/09/08 06:23:40;;;;;;;24.70;10.10;;;;;;;;;;5061203;28;20045;-68
2021/09/08 06:26:06;;;;;;;15.38;9.40;;;;;;;;;;5056502;28;20017;-72
2021/09/08 06:28:32;;;;;;;16.42;10.02;;;;;;;;;;5071490;28;20037;-64
2021/09/08 06:30:58;;;;;;;20.63;11.48;;;;;;;;;;5074071;28;20036;-68
2021/09/08 06:33:24;;;;;;;16.85;11.45;;;;;;;;;;5075341;28;20064;-74
2021/09/08 06:35:50;;;;;;;25.88;11.93;;;;;;;;;;5076059;28;20055;-77
2021/09/08 06:38:16;;;;;;;31.65;11.15;;;;;;;;;;5058559;28;20468;-65
2021/09/08 06:40:42;;;;;;;28.50;12.18;;;;;;;;;;5076507;28;20403;-61
2021/09/08 06:43:08;;;;;;;23.58;11.38;;;;;;;;;;5076336;28;20515;-68
2021/09/08 06:45:34;;;;;;;15.82;11.07;;;;;;;;;;5074870;28;20021;-65
2021/09/08 06:48:01;;;;;;;17.02;11.50;;;;;;;;;;5066607;28;20024;-65
2021/09/08 06:50:27;;;;;;;21.90;12.32;;;;;;;;;;5056005;28;20377;-65
2021/09/08 06:52:53;;;;;;;23.08;12.02;;;;;;;;;;5038264;28;20029;-65
2021/09/08 06:55:19;;;;;;;25.13;12.48;;;;;;;;;;5060849;28;20082;-65
2021/09/08 06:57:45;;;;;;;22.60;12.52;;;;;;;;;;5057723;28;20036;-65
2021/09/08 07:00:11;;;;;;;18.88;12.50;;;;;;;;;;5075605;28;20017;-65
2021/09/08 07:02:37;;;;;;;15.27;10.88;;;;;;;;;;5057761;28;20444;-66
2021/09/08 07:05:03;;;;;;;18.80;12.55;;;;;;;;;;5075737;28;20032;-65
2021/09/08 07:07:29;;;;;;;23.60;11.60;;;;;;;;;;5075693;28;20096;-65
2021/09/08 07:09:55;;;;;;;19.50;12.50;;;;;;;;;;5075846;28;20116;-65
2021/09/08 07:12:21;;;;;;;20.90;12.77;;;;;;;;;;5075957;28;20024;-71
2021/09/08 07:14:47;;;;;;;23.83;13.05;;;;;;;;;;5057960;28;20036;-67
2021/09/08 07:17:13;;;;;;;18.60;13.00;;;;;;;;;;5054874;28;20044;-66
2021/09/08 07:19:39;;;;;;;22.23;13.50;;;;;;;;;;5072502;28;20025;-65
2021/09/08 07:22:05;;;;;;;21.25;12.77;;;;;;;;;;5075472;28;20407;-65
2021/09/08 07:24:31;;;;;;;21.30;13.20;;;;;;;;;;5075393;28;20170;-73
2021/09/08 07:26:57;;;;;;;20.15;12.50;;;;;;;;;;5075670;28;20111;-65
2021/09/08 07:29:24;;;;;;;20.92;12.75;;;;;;;;;;5075302;28;20021;-65
2021/09/08 07:31:50;;;;;;;20.95;13.30;;;;;;;;;;5075585;28;20077;-66
2021/09/08 07:34:16;;;;;;;21.55;13.93;;;;;;;;;;5067931;28;20037;-65
2021/09/08 07:36:42;;;;;;;25.80;13.57;;;;;;;;;;5041341;28;20451;-67
2021/09/08 07:39:08;;;;;;;22.85;13.52;;;;;;;;;;5057356;28;20020;-72
2021/09/08 07:41:34;;;;;;;20.00;12.77;;;;;;;;;;5057126;28;20150;-66
2021/09/08 07:44:00;;;;;;;24.50;13.65;;;;;;;;;;5057216;28;20020;-65
2021/09/08 07:46:26;;;;;;;21.50;13.77;;;;;;;;;;5074934;28;20024;-64
2021/09/08 07:48:52;;;;;;;18.90;12.48;;;;;;;;;;5075271;28;20082;-65
2021/09/08 07:51:18;;;;;;;18.50;11.40;;;;;;;;;;5074973;28;20059;-65
2021/09/08 07:53:44;;;;;;;18.30;11.90;;;;;;;;;;5074952;28;20035;-65
2021/09/08 07:56:10;;;;;;;20.48;13.68;;;;;;;;;;5075033;28;20037;-66
2021/09/08 07:58:38;;;;;;;25.65;13.50;;;;;;;;;;5056918;28;20426;-66
2021/09/08 08:01:04;;;;;;;20.75;14.40;;;;;;;;;;5057173;28;20110;-65
2021/09/08 08:03:30;;;;;;;22.27;14.35;;;;;;;;;;5074879;28;20444;-67
2021/09/08 08:05:56;;;;;;;24.08;15.13;;;;;;;;;;5074904;28;20074;-66
2021/09/08 08:08:22;;;;;;;24.55;15.05;;;;;;;;;;5074824;28;20104;-66
2021/09/08 08:10:48;;;;;;;23.15;14.93;;;;;;;;;;5074615;28;20013;-67
2021/09/08 08:13:14;;;;;;;25.10;15.10;;;;;;;;;;5074800;28;20369;-69
2021/09/08 08:15:40;;;;;;;28.30;14.48;;;;;;;;;;5074572;28;20032;-72
2021/09/08 08:18:06;;;;;;;23.35;14.38;;;;;;;;;;5074660;28;20028;-67
2021/09/08 08:20:32;;;;;;;23.63;13.55;;;;;;;;;;5074609;28;20050;-69
2021/09/08 08:22:59;;;;;;;26.90;14.55;;;;;;;;;;5056340;28;20036;-69
2021/09/08 08:25:30;;;;;;;21.40;14.48;;;;;;;;;;5074605;28;20085;-68
2021/09/08 08:27:57;;;;;;;27.48;15.15;;;;;;;;;;5074510;28;20024;-68
2021/09/08 08:30:23;;;;;;;25.42;15.82;;;;;;;;;;5074547;28;20028;-66
2021/09/08 08:32:49;;;;;;;22.33;14.68;;;;;;;;;;5056302;28;20081;-66
2021/09/08 08:35:15;;;;;;;23.67;15.20;;;;;;;;;;5073832;28;20024;-67
2021/09/08 08:37:41;;;;;;;28.40;16.13;;;;;;;;;;5056031;28;20407;-66
2021/09/08 08:40:08;;;;;;;21.25;14.68;;;;;;;;;;5073986;28;20776;-66
2021/09/08 08:42:34;;;;;;;64.45;15.77;;;;;;;;;;5073801;28;20025;-67
2021/09/08 08:45:00;;;;;;;33.67;16.25;;;;;;;;;;5073909;28;20021;-67
2021/09/08 08:47:27;;;;;;;34.45;16.15;;;;;;;;;;5073705;28;20020;-67
2021/09/08 08:49:53;;;;;;;45.88;16.80;;;;;;;;;;5073845;28;20037;-67
2021/09/08 08:52:19;;;;;;;32.80;16.58;;;;;;;;;;5055952;28;20029;-67
2021/09/08 08:54:45;;;;;;;34.17;16.15;;;;;;;;;;5055333;28;20036;-67
2021/09/08 08:57:12;;;;;;;26.13;13.18;;;;;;;;;;5056361;28;20036;-71
2021/09/08 08:59:39;;;;;;;26.05;13.50;;;;;;;;;;5073607;28;20056;-69
2021/09/08 09:02:19;;;;;;;27.92;12.93;;;;;;;;;;5073755;28;20468;-68
2021/09/08 09:04:45;;;;;;;27.95;13.38;;;;;;;;;;5074109;28;20363;-68
2021/09/08 09:07:21;;;;;;;20.00;12.13;;;;;;;;;;5074253;28;20024;-68
2021/09/08 09:09:50;;;;;;;29.33;15.40;;;;;;;;;;5036343;28;20447;-68
2021/09/08 09:12:17;;;;;;;30.13;15.10;;;;;;;;;;5055311;28;20051;-70
2021/09/08 09:14:42;;;;;;;26.67;17.35;;;;;;;;;;5073510;28;20089;-68
2021/09/08 09:17:14;;;;;;;25.98;16.23;;;;;;;;;;5072998;28;20040;-69
2021/09/08 09:19:50;;;;;;;25.88;16.25;;;;;;;;;;5073667;28;20076;-78
2021/09/08 09:22:19;;;;;;;28.70;17.38;;;;;;;;;;5072934;28;20135;-68
2021/09/08 09:24:47;;;;;;;26.55;16.73;;;;;;;;;;5072097;28;20043;-67
2021/09/08 09:27:13;;;;;;;26.80;16.70;;;;;;;;;;5072100;28;20055;-68
2021/09/08 09:29:45;;;;;;;24.45;17.23;;;;;;;;;;5072201;28;20060;-68
2021/09/08 09:32:11;;;;;;;27.77;17.50;;;;;;;;;;5072414;28;20029;-67
2021/09/08 09:34:41;;;;;;;26.90;16.55;;;;;;;;;;5054545;28;20106;-68
2021/09/08 09:37:08;;;;;;;32.78;16.33;;;;;;;;;;5054106;28;20032;-68
2021/09/08 09:39:35;;;;;;;29.65;15.88;;;;;;;;;;5050558;28;20025;-68
2021/09/08 09:42:02;;;;;;;26.33;15.80;;;;;;;;;;5065528;28;20028;-68
2021/09/08 09:44:31;;;;;;;28.73;15.70;;;;;;;;;;5074352;28;20024;-67
2021/09/08 09:46:58;;;;;;;26.08;15.07;;;;;;;;;;5055291;28;20051;-68
2021/09/08 09:49:25;;;;;;;28.80;15.07;;;;;;;;;;5072055;28;20039;-68
2021/09/08 09:51:55;;;;;;;22.05;14.88;;;;;;;;;;5054510;28;20065;-71
2021/09/08 09:54:21;;;;;;;25.42;14.80;;;;;;;;;;5072424;28;20383;-71
2021/09/08 09:56:47;;;;;;;26.40;13.90;;;;;;;;;;5072224;28;20487;-71
2021/09/08 09:59:14;;;;;;;24.42;15.00;;;;;;;;;;5072320;28;20029;-73
2021/09/08 10:01:40;;;;;;;26.17;14.10;;;;;;;;;;5054456;28;20036;-72
2021/09/08 10:04:06;;;;;;;25.73;13.45;;;;;;;;;;5072261;28;20020;-72
2021/09/08 10:06:32;;;;;;;26.85;14.43;;;;;;;;;;5071536;28;20047;-74
2021/09/08 10:08:58;;;;;;;24.70;14.73;;;;;;;;;;5072109;28;20356;-71
2021/09/08 10:11:25;;;;;;;20.88;13.43;;;;;;;;;;5072025;28;20031;-74
2021/09/08 10:13:53;;;;;;;23.73;13.40;;;;;;;;;;5072219;28;20376;-72
2021/09/08 10:16:21;;;;;;;21.75;13.38;;;;;;;;;;5072008;28;20041;-73
2021/09/08 10:18:47;;;;;;;23.50;13.70;;;;;;;;;;5072549;28;20119;-71
2021/09/08 10:21:18;;;;;;;22.60;13.82;;;;;;;;;;5072767;28;20032;-74
2021/09/08 10:23:45;;;;;;;42.55;13.38;;;;;;;;;;5034514;28;1073541;-71
2021/09/08 10:26:13;;;;;;;23.88;12.88;;;;;;;;;;5072520;28;20043;-68
2021/09/08 10:28:40;;;;;;;24.63;12.63;;;;;;;;;;5073228;28;20110;-68
2021/09/08 10:31:07;;;;;;;32.25;14.48;;;;;;;;;;5072536;28;20028;-68
2021/09/08 10:33:35;;;;;;;25.60;13.50;;;;;;;;;;5072746;28;20028;-72
2021/09/08 10:36:02;;;;;;;33.33;13.40;;;;;;;;;;5072699;28;20032;-70
2021/09/08 10:38:30;;;;;;;26.70;13.35;;;;;;;;;;5072885;28;20044;-68
2021/09/08 10:40:57;;;;;;;23.23;12.65;;;;;;;;;;5072859;28;20056;-71
2021/09/08 10:43:30;;;;;;;29.77;13.98;;;;;;;;;;5072441;28;20036;-73
2021/09/08 10:45:56;;;;;;;23.15;12.02;;;;;;;;;;5072560;28;20025;-72
2021/09/08 10:48:42;;;;;;;21.98;13.93;;;;;;;;;;5072342;28;20361;-69
2021/09/08 10:51:10;;;;;;;22.55;13.02;;;;;;;;;;5072992;28;20029;-70
2021/09/08 10:53:36;;;;;;;28.65;13.90;;;;;;;;;;5072213;28;20387;-68
2021/09/08 10:56:03;;;;;;;21.13;14.15;;;;;;;;;;5072095;28;20112;-69
2021/09/08 10:58:48;;;;;;;26.48;12.98;;;;;;;;;;5072384;28;20024;-70
2021/09/08 11:01:15;;;;;;;24.98;12.88;;;;;;;;;;5072188;28;20483;-67
2021/09/08 11:03:43;;;;;;;19.20;11.60;;;;;;;;;;5072240;28;20020;-67
2021/09/08 11:06:09;;;;;;;21.02;11.88;;;;;;;;;;5072519;28;20039;-67
2021/09/08 11:08:35;;;;;;;23.63;12.32;;;;;;;;;;5071942;28;20028;-67
2021/09/08 11:11:10;;;;;;;18.45;11.20;;;;;;;;;;5071778;28;20036;-68
2021/09/08 11:13:37;;;;;;;18.55;11.40;;;;;;;;;;5054167;28;20028;-68
2021/09/08 11:16:15;;;;;;;23.02;10.70;;;;;;;;;;5072222;28;20025;-69
2021/09/08 11:18:41;;;;;;;18.92;10.55;;;;;;;;;;5075697;28;20024;-67
2021/09/08 11:21:07;;;;;;;25.75;10.60;;;;;;;;;;5075735;28;20111;-70
2021/09/08 11:23:33;;;;;;;18.52;11.40;;;;;;;;;;5075354;28;20103;-69
2021/09/08 11:26:06;;;;;;;19.17;10.30;;;;;;;;;;5075509;28;20029;-68
2021/09/08 11:28:32;;;;;;;14.48;10.90;;;;;;;;;;5075408;28;20078;-68
2021/09/08 11:30:58;;;;;;;18.55;11.43;;;;;;;;;;5075434;28;20484;-68
2021/09/08 11:33:33;;;;;;;24.27;10.13;;;;;;;;;;5075245;28;20048;-68
2021/09/08 11:36:00;;;;;;;19.85;10.13;;;;;;;;;;5075514;28;20024;-68
2021/09/08 11:38:27;;;;;;;18.42;10.32;;;;;;;;;;5057047;28;20055;-68
2021/09/08 11:40:55;;;;;;;22.85;10.63;;;;;;;;;;5075189;28;20054;-68
2021/09/08 11:43:30;;;;;;;14.40;10.60;;;;;;;;;;5075048;28;20040;-68
2021/09/08 11:45:56;;;;;;;14.50;9.85;;;;;;;;;;5064831;28;20108;-67
2021/09/08 11:48:29;;;;;;;17.08;10.73;;;;;;;;;;5054732;28;20108;-69
2021/09/08 11:51:05;;;;;;;18.48;10.60;;;;;;;;;;5054013;28;20078;-68
2021/09/08 11:53:32;;;;;;;17.48;10.63;;;;;;;;;;5053768;28;20511;-70
2021/09/08 11:56:08;;;;;;;19.58;9.85;;;;;;;;;;5053839;28;20067;-69
2021/09/08 11:58:35;;;;;;;17.75;10.77;;;;;;;;;;5035844;28;20028;-68
2021/09/08 12:01:04;;;;;;;17.70;10.63;;;;;;;;;;5053791;28;20029;-69
2021/09/08 12:03:30;;;;;;;19.00;11.02;;;;;;;;;;5053704;28;20023;-67
2021/09/08 12:06:10;;;;;;;16.88;9.80;;;;;;;;;;5036863;28;20087;-68
2021/09/08 12:08:36;;;;;;;14.50;10.93;;;;;;;;;;5054785;28;20064;-67
2021/09/08 12:11:03;;;;;;;18.23;10.90;;;;;;;;;;5063843;28;20019;-68
2021/09/08 12:13:30;;;;;;;16.35;10.73;;;;;;;;;;5074405;28;20056;-68
2021/09/08 12:15:56;;;;;;;20.60;11.55;;;;;;;;;;5074486;28;20041;-70
2021/09/08 12:18:23;;;;;;;19.73;11.15;;;;;;;;;;5074281;28;20028;-67
2021/09/08 12:20:49;;;;;;;18.35;9.60;;;;;;;;;;5056625;28;20031;-67
2021/09/08 12:23:29;;;;;;;17.10;10.43;;;;;;;;;;5069414;28;20049;-67
2021/09/08 12:26:02;;;;;;;19.48;9.88;;;;;;;;;;5054142;28;20530;-67
2021/09/08 12:28:28;;;;;;;18.95;10.00;;;;;;;;;;5035250;28;20025;-68
2021/09/08 12:31:13;;;;;;;14.48;9.45;;;;;;;;;;5036443;28;20029;-67
2021/09/08 12:33:55;;;;;;;20.48;9.10;;;;;;;;;;5036398;28;20381;-67
2021/09/08 12:36:21;;;;;;;14.57;8.90;;;;;;;;;;5054159;28;20465;-67
2021/09/08 12:38:50;;;;;;;14.05;8.25;;;;;;;;;;5054222;28;20020;-67
2021/09/08 12:41:16;;;;;;;19.95;9.02;;;;;;;;;;5053929;28;20021;-68
2021/09/08 12:43:43;;;;;;;16.25;8.52;;;;;;;;;;5054129;28;20086;-67
2021/09/08 12:46:10;;;;;;;16.88;8.55;;;;;;;;;;5054033;28;20096;-68
2021/09/08 12:48:36;;;;;;;13.15;7.97;;;;;;;;;;5053849;28;20396;-67
2021/09/08 12:51:02;;;;;;;16.30;7.82;;;;;;;;;;5036176;28;20036;-68
2021/09/08 12:53:28;;;;;;;11.55;8.25;;;;;;;;;;5053861;28;20031;-67
2021/09/08 12:55:54;;;;;;;13.70;8.27;;;;;;;;;;5053765;28;20425;-67
2021/09/08 12:58:20;;;;;;;12.27;8.27;;;;;;;;;;5053619;28;20067;-68
2021/09/08 13:00:46;;;;;;;13.48;7.85;;;;;;;;;;5053826;28;20082;-68
2021/09/08 13:03:13;;;;;;;18.10;8.48;;;;;;;;;;5053486;28;20029;-67
2021/09/08 13:05:39;;;;;;;15.65;8.30;;;;;;;;;;5053696;28;20031;-67
2021/09/08 13:08:05;;;;;;;15.02;8.00;;;;;;;;;;5053662;28;20120;-67
2021/09/08 13:10:31;;;;;;;14.95;8.65;;;;;;;;;;5053592;28;20025;-68
2021/09/08 13:12:57;;;;;;;13.30;8.27;;;;;;;;;;5053447;28;20411;-67
2021/09/08 13:15:23;;;;;;;13.18;7.93;;;;;;;;;;5053448;28;20055;-68
2021/09/08 13:17:51;;;;;;;12.57;7.97;;;;;;;;;;5053225;28;20045;-68
2021/09/08 13:20:17;;;;;;;18.38;8.07;;;;;;;;;;5053372;28;20025;-68
2021/09/08 13:22:43;;;;;;;18.95;7.85;;;;;;;;;;5053580;28;20044;-67
2021/09/08 13:25:09;;;;;;;12.82;7.72;;;;;;;;;;5073098;28;20032;-68
2021/09/08 13:27:37;;;;;;;9.85;7.90;;;;;;;;;;5073284;28;20021;-68
2021/09/08 13:30:04;;;;;;;14.00;8.02;;;;;;;;;;5073089;28;20525;-68
2021/09/08 13:32:30;;;;;;;14.60;7.65;;;;;;;;;;5073148;28;20101;-68
2021/09/08 13:34:58;;;;;;;10.45;7.82;;;;;;;;;;5072889;28;20152;-68
2021/09/08 13:37:23;;;;;;;16.38;8.40;;;;;;;;;;5073076;28;20033;-68
2021/09/08 13:39:49;;;;;;;14.23;7.82;;;;;;;;;;5054959;28;20032;-68
2021/09/08 13:42:15;;;;;;;12.23;8.10;;;;;;;;;;5072977;28;20484;-68
2021/09/08 13:44:41;;;;;;;11.23;7.30;;;;;;;;;;5072858;28;20368;-68
2021/09/08 13:47:07;;;;;;;11.23;7.50;;;;;;;;;;5072889;28;20383;-68
2021/09/08 13:49:33;;;;;;;13.32;7.30;;;;;;;;;;5073061;28;20017;-68
2021/09/08 13:51:59;;;;;;;12.90;7.68;;;;;;;;;;5073031;28;20024;-68
2021/09/08 13:54:25;;;;;;;9.60;7.40;;;;;;;;;;5072858;28;20036;-68
2021/09/08 13:56:52;;;;;;;12.85;7.70;;;;;;;;;;5073032;28;20486;-68
2021/09/08 13:59:18;;;;;;;12.10;6.80;;;;;;;;;;5054857;28;20024;-68
2021/09/08 14:01:44;;;;;;;10.77;6.45;;;;;;;;;;5072863;28;20051;-68
2021/09/08 14:04:10;;;;;;;20.08;7.85;;;;;;;;;;5072796;28;20024;-68
2021/09/08 14:06:35;;;;;;;15.40;7.60;;;;;;;;;;5072721;28;20104;-68
2021/09/08 14:09:02;;;;;;;15.18;8.35;;;;;;;;;;5072885;28;20020;-68
2021/09/08 14:11:28;;;;;;;15.13;9.07;;;;;;;;;;5072640;28;20077;-68
2021/09/08 14:13:54;;;;;;;21.65;8.30;;;;;;;;;;5054631;28;20024;-68
2021/09/08 14:16:20;;;;;;;20.88;9.07;;;;;;;;;;5072413;28;20116;-68
2021/09/08 14:18:46;;;;;;;17.80;9.07;;;;;;;;;;5072680;28;20051;-68